createdAt,value
2019-03-15T00:00:57.053Z,12.87
2019-03-15T00:03:26.769Z,14.80
2019-03-15T00:05:56.572Z,18.63
2019-03-15T00:08:26.324Z,15.07
2019-03-15T00:10:56.118Z,15.17
2019-03-15T00:13:25.900Z,20.13
2019-03-15T00:15:55.607Z,19.47
2019-03-15T00:18:25.276Z,15.90
2019-03-15T00:20:55.158Z,14.70
2019-03-15T00:23:24.976Z,22.57
2019-03-15T00:25:55.517Z,17.30
2019-03-15T00:28:25.547Z,22.47
2019-03-15T00:30:55.345Z,18.03
2019-03-15T00:33:24.992Z,19.13
2019-03-15T00:35:54.772Z,16.30
2019-03-15T00:38:24.462Z,19.50
2019-03-15T00:40:54.319Z,19.60
2019-03-15T00:43:24.185Z,17.27
2019-03-15T00:45:54.018Z,14.97
2019-03-15T00:48:23.809Z,16.37
2019-03-15T00:50:53.592Z,16.97
2019-03-15T00:53:23.296Z,17.10
2019-03-15T00:55:53.058Z,12.27
2019-03-15T00:58:22.931Z,19.00
2019-03-15T01:00:52.681Z,20.03
2019-03-15T01:03:22.438Z,16.83
2019-03-15T01:05:52.230Z,19.87
2019-03-15T01:08:22.044Z,19.83
2019-03-15T01:10:51.795Z,17.37
2019-03-15T01:13:21.567Z,12.57
2019-03-15T01:15:51.288Z,19.53
2019-03-15T01:18:20.952Z,17.60
2019-03-15T01:20:50.718Z,20.67
2019-03-15T01:23:20.396Z,18.87
2019-03-15T01:25:50.167Z,21.87
2019-03-15T01:28:19.908Z,15.07
2019-03-15T01:30:49.659Z,12.53
2019-03-15T01:33:19.429Z,17.53
2019-03-15T01:35:49.150Z,17.33
2019-03-15T01:38:18.818Z,16.00
2019-03-15T01:40:49.055Z,17.87
2019-03-15T01:43:19.038Z,17.20
2019-03-15T01:45:48.819Z,15.83
2019-03-15T01:48:18.617Z,20.83
2019-03-15T01:50:48.325Z,20.97
2019-03-15T01:53:18.162Z,18.67
2019-03-15T01:55:47.936Z,17.63
2019-03-15T01:58:17.770Z,13.40
2019-03-15T02:00:47.494Z,16.10
2019-03-15T02:03:17.276Z,18.67
2019-03-15T02:05:46.969Z,21.20
2019-03-15T02:08:16.746Z,21.87
2019-03-15T02:10:46.540Z,18.93
2019-03-15T02:13:16.265Z,20.27
2019-03-15T02:15:46.086Z,20.53
2019-03-15T02:18:15.877Z,17.17
2019-03-15T02:20:45.756Z,23.43
2019-03-15T02:23:15.489Z,19.13
2019-03-15T02:25:45.323Z,21.63
2019-03-15T02:28:15.132Z,18.07
2019-03-15T02:30:44.836Z,16.20
2019-03-15T02:33:14.559Z,22.00
2019-03-15T02:35:44.329Z,18.80
2019-03-15T02:38:14.121Z,13.90
2019-03-15T02:40:43.901Z,17.53
2019-03-15T02:43:13.759Z,15.67
2019-03-15T02:45:43.443Z,21.50
2019-03-15T02:48:13.732Z,18.43
2019-03-15T02:50:43.568Z,15.03
2019-03-15T02:53:13.268Z,20.07
2019-03-15T02:55:43.099Z,18.27
2019-03-15T02:58:12.796Z,14.87
2019-03-15T03:00:42.675Z,18.03
2019-03-15T03:03:12.415Z,24.27
2019-03-15T03:05:42.155Z,21.17
2019-03-15T03:08:11.919Z,20.03
2019-03-15T03:10:41.639Z,14.13
2019-03-15T03:13:11.420Z,14.80
2019-03-15T03:15:41.115Z,17.93
2019-03-15T03:18:10.874Z,21.93
2019-03-15T03:20:40.622Z,11.93
2019-03-15T03:23:10.368Z,24.53
2019-03-15T03:25:40.238Z,15.60
2019-03-15T03:28:09.943Z,25.53
2019-03-15T03:30:39.768Z,19.70
2019-03-15T03:33:12.386Z,20.23
2019-03-15T03:35:41.094Z,16.53
2019-03-15T03:38:12.266Z,16.43
2019-03-15T03:40:42.199Z,18.00
2019-03-15T03:43:11.942Z,22.67
2019-03-15T03:45:41.648Z,14.20
2019-03-15T03:48:11.408Z,15.30
2019-03-15T03:50:41.217Z,17.20
2019-03-15T03:53:10.985Z,20.53
2019-03-15T03:55:40.842Z,17.03
2019-03-15T03:58:10.631Z,22.20
2019-03-15T04:00:40.427Z,18.13
2019-03-15T04:03:10.241Z,16.60
2019-03-15T04:05:40.093Z,20.33
2019-03-15T04:08:09.979Z,19.87
2019-03-15T04:10:39.683Z,18.63
2019-03-15T04:13:09.347Z,12.97
2019-03-15T04:15:39.274Z,20.10
2019-03-15T04:18:08.985Z,17.93
2019-03-15T04:20:38.755Z,18.07
2019-03-15T04:23:08.430Z,13.50
2019-03-15T04:25:40.535Z,18.77
2019-03-15T04:28:09.557Z,14.20
2019-03-15T04:30:39.357Z,19.50
2019-03-15T04:33:09.124Z,14.67
2019-03-15T04:35:38.895Z,16.03
2019-03-15T04:38:08.652Z,17.93
2019-03-15T04:40:38.408Z,14.63
2019-03-15T04:43:08.186Z,20.83
2019-03-15T04:45:38.120Z,13.17
2019-03-15T04:48:07.803Z,14.93
2019-03-15T04:50:37.606Z,17.67
2019-03-15T04:53:07.288Z,20.03
2019-03-15T04:55:37.044Z,20.47
2019-03-15T04:58:06.862Z,16.67
2019-03-15T05:00:36.631Z,14.40
2019-03-15T05:03:06.345Z,20.60
2019-03-15T05:05:36.097Z,17.83
2019-03-15T05:08:05.778Z,19.10
2019-03-15T05:10:35.447Z,16.90
2019-03-15T05:13:05.247Z,18.60
2019-03-15T05:15:34.967Z,17.00
2019-03-15T05:18:04.700Z,20.80
2019-03-15T05:20:34.356Z,20.73
2019-03-15T05:23:04.084Z,12.50
2019-03-15T05:25:33.788Z,18.27
2019-03-15T05:28:03.541Z,14.43
2019-03-15T05:30:33.318Z,13.83
2019-03-15T05:33:02.947Z,17.90
2019-03-15T05:35:32.706Z,18.47
2019-03-15T05:38:02.443Z,21.13
2019-03-15T05:40:32.108Z,13.27
2019-03-15T05:43:01.789Z,20.47
2019-03-15T05:45:35.060Z,20.40
2019-03-15T05:48:05.229Z,11.43
2019-03-15T05:50:34.950Z,10.03
2019-03-15T05:53:04.763Z,10.40
2019-03-15T05:55:34.468Z,21.40
2019-03-15T05:58:04.274Z,15.43
2019-03-15T06:00:34.063Z,16.00
2019-03-15T06:03:03.751Z,14.93
2019-03-15T06:05:33.530Z,17.73
2019-03-15T06:08:03.272Z,13.37
2019-03-15T06:10:32.968Z,17.20
2019-03-15T06:13:02.683Z,12.27
2019-03-15T06:15:32.373Z,11.67
2019-03-15T06:18:02.085Z,15.37
2019-03-15T06:20:31.765Z,14.83
2019-03-15T06:23:01.481Z,18.13
2019-03-15T06:25:31.152Z,14.30
2019-03-15T06:28:00.834Z,12.37
2019-03-15T06:30:30.586Z,17.53
2019-03-15T06:33:00.281Z,17.17
2019-03-15T06:35:29.992Z,14.90
2019-03-15T06:37:59.772Z,17.13
2019-03-15T06:40:29.535Z,12.57
2019-03-15T06:42:59.233Z,17.07
2019-03-15T06:45:28.891Z,14.07
2019-03-15T06:47:58.626Z,12.20
2019-03-15T06:50:28.338Z,13.97
2019-03-15T06:52:58.116Z,14.70
2019-03-15T06:55:27.816Z,19.33
2019-03-15T06:57:57.590Z,16.77
2019-03-15T07:00:27.258Z,18.13
2019-03-15T07:02:56.976Z,12.77
2019-03-15T07:05:26.620Z,11.73
2019-03-15T07:07:56.401Z,19.33
2019-03-15T07:10:26.190Z,17.73
2019-03-15T07:12:55.873Z,12.10
2019-03-15T07:15:25.579Z,15.90
2019-03-15T07:17:55.262Z,18.37
2019-03-15T07:20:25.057Z,14.13
2019-03-15T07:22:56.249Z,15.97
2019-03-15T07:25:25.970Z,17.50
2019-03-15T07:27:55.652Z,14.63
2019-03-15T07:30:25.439Z,12.23
2019-03-15T07:32:56.061Z,15.80
2019-03-15T07:35:26.139Z,18.10
2019-03-15T07:37:55.803Z,20.57
2019-03-15T07:40:25.659Z,14.40
2019-03-15T07:42:55.706Z,19.93
2019-03-15T07:45:25.451Z,16.50
2019-03-15T07:47:55.099Z,14.67
2019-03-15T07:50:24.967Z,15.33
2019-03-15T07:52:54.659Z,17.27
2019-03-15T07:55:24.423Z,14.60
2019-03-15T07:57:54.123Z,14.97
2019-03-15T08:00:23.823Z,14.00
2019-03-15T08:02:53.668Z,20.57
2019-03-15T08:05:23.540Z,13.07
2019-03-15T08:07:53.293Z,15.83
2019-03-15T08:10:22.958Z,15.87
2019-03-15T08:12:52.754Z,18.77
2019-03-15T08:15:22.426Z,17.80
2019-03-15T08:17:52.141Z,21.00
2019-03-15T08:20:21.904Z,17.33
2019-03-15T08:22:51.723Z,21.30
2019-03-15T08:25:21.548Z,19.47
2019-03-15T08:27:51.257Z,20.43
2019-03-15T08:30:20.941Z,19.93
2019-03-15T08:32:50.700Z,22.23
2019-03-15T08:35:20.461Z,19.00
2019-03-15T08:37:50.117Z,22.57
2019-03-15T08:40:19.966Z,20.13
2019-03-15T08:42:49.708Z,18.40
2019-03-15T08:45:20.707Z,27.70
2019-03-15T08:47:50.398Z,24.27
2019-03-15T08:50:24.284Z,31.23
2019-03-15T08:52:54.067Z,22.00
2019-03-15T08:55:23.594Z,24.57
2019-03-15T08:57:53.358Z,29.63
2019-03-15T09:00:23.243Z,23.17
2019-03-15T09:02:52.942Z,27.17
2019-03-15T09:05:22.659Z,30.00
2019-03-15T09:07:52.340Z,26.33
2019-03-15T09:10:23.845Z,22.70
2019-03-15T09:12:53.589Z,30.73
2019-03-15T09:15:23.416Z,25.57
2019-03-15T09:17:53.116Z,24.97
2019-03-15T09:20:22.911Z,30.90
2019-03-15T09:22:52.624Z,25.00
2019-03-15T09:25:22.410Z,24.50
2019-03-15T09:27:52.151Z,28.83
2019-03-15T09:30:24.173Z,24.07
2019-03-15T09:32:53.356Z,29.77
2019-03-15T09:35:23.035Z,28.67
2019-03-15T09:37:52.743Z,20.87
2019-03-15T09:40:25.448Z,22.17
2019-03-15T09:42:53.980Z,22.17
2019-03-15T09:45:23.760Z,19.53
2019-03-15T09:47:53.518Z,17.87
2019-03-15T09:50:33.891Z,21.87
2019-03-15T09:52:54.614Z,20.33
2019-03-15T09:55:32.719Z,18.57
2019-03-15T09:57:55.851Z,18.37
2019-03-15T10:00:25.677Z,18.87
2019-03-15T10:02:56.189Z,16.67
2019-03-15T10:05:26.049Z,20.63
2019-03-15T10:07:55.910Z,21.00
2019-03-15T10:10:25.623Z,19.93
2019-03-15T10:13:05.338Z,20.17
2019-03-15T10:15:28.439Z,22.20
2019-03-15T10:17:58.308Z,21.17
2019-03-15T10:20:28.023Z,21.73
2019-03-15T10:23:05.783Z,22.90
2019-03-15T10:25:29.152Z,19.93
2019-03-15T10:27:58.996Z,20.37
2019-03-15T10:30:28.751Z,19.40
2019-03-15T10:32:58.504Z,15.03
2019-03-15T10:35:28.241Z,17.57
2019-03-15T10:37:58.064Z,17.53
2019-03-15T10:40:27.828Z,17.30
2019-03-15T10:42:57.562Z,16.63
2019-03-15T10:45:27.240Z,13.37
2019-03-15T10:47:57.069Z,14.60
2019-03-15T10:50:26.780Z,12.63
2019-03-15T10:52:56.553Z,11.83
2019-03-15T10:55:26.238Z,14.20
2019-03-15T10:57:55.935Z,13.87
2019-03-15T11:00:25.727Z,11.73
2019-03-15T11:02:55.440Z,12.90
2019-03-15T11:05:25.130Z,11.27
2019-03-15T11:07:54.904Z,9.50
2019-03-15T11:10:24.645Z,7.57
2019-03-15T11:12:54.414Z,11.23
2019-03-15T11:15:24.114Z,9.57
2019-03-15T11:17:53.804Z,7.23
2019-03-15T11:20:23.464Z,8.40
2019-03-15T11:22:53.258Z,7.87
2019-03-15T11:25:23.006Z,6.60
2019-03-15T11:27:52.836Z,8.33
2019-03-15T11:30:22.503Z,8.20
2019-03-15T11:32:52.204Z,7.87
2019-03-15T11:35:21.925Z,8.17
2019-03-15T11:37:51.643Z,7.33
2019-03-15T11:40:21.368Z,7.73
2019-03-15T11:42:51.206Z,8.40
2019-03-15T11:45:20.951Z,6.50
2019-03-15T11:48:03.152Z,5.57
2019-03-15T11:50:22.670Z,6.97
2019-03-15T11:52:52.449Z,6.80
2019-03-15T11:55:22.087Z,5.90
2019-03-15T11:57:51.935Z,6.20
2019-03-15T12:00:21.753Z,6.17
2019-03-15T12:02:51.383Z,5.10
2019-03-15T12:05:21.197Z,4.90
2019-03-15T12:07:50.871Z,5.20
2019-03-15T12:10:20.697Z,4.47
2019-03-15T12:12:50.376Z,5.43
2019-03-15T12:15:20.283Z,5.07
2019-03-15T12:17:50.036Z,6.67
2019-03-15T12:20:19.788Z,5.80
2019-03-15T12:22:49.747Z,5.40
2019-03-15T12:25:19.514Z,5.03
2019-03-15T12:27:49.251Z,5.07
2019-03-15T12:30:19.140Z,5.17
2019-03-15T12:32:48.899Z,5.37
2019-03-15T12:35:18.584Z,5.20
2019-03-15T12:37:48.276Z,6.43
2019-03-15T12:40:18.428Z,5.53
2019-03-15T12:42:48.168Z,3.87
2019-03-15T12:45:17.999Z,3.57
2019-03-15T12:47:47.751Z,6.80
2019-03-15T12:50:17.517Z,5.33
2019-03-15T12:52:48.575Z,4.87
2019-03-15T12:55:18.788Z,6.30
2019-03-15T12:57:49.546Z,4.83
2019-03-15T13:00:22.663Z,5.73
2019-03-15T13:02:52.507Z,7.67
2019-03-15T13:05:22.202Z,6.83
2019-03-15T13:07:51.865Z,5.40
2019-03-15T13:10:22.766Z,8.57
2019-03-15T13:12:52.590Z,6.60
2019-03-15T13:15:22.398Z,6.00
2019-03-15T13:17:52.113Z,7.37
2019-03-15T13:20:21.890Z,8.17
2019-03-15T13:22:51.684Z,6.80
2019-03-15T13:25:21.375Z,5.27
2019-03-15T13:27:51.088Z,9.27
2019-03-15T13:30:20.750Z,11.73
2019-03-15T13:32:50.500Z,7.17
2019-03-15T13:35:20.267Z,5.23
2019-03-15T13:37:50.051Z,6.13
2019-03-15T13:40:20.493Z,5.53
2019-03-15T13:42:50.326Z,4.50
2019-03-15T13:45:20.135Z,5.70
2019-03-15T13:47:49.903Z,3.97
2019-03-15T13:50:21.055Z,7.20
2019-03-15T13:52:50.745Z,6.17
2019-03-15T13:55:20.497Z,4.53
2019-03-15T13:57:50.284Z,4.57
2019-03-15T14:00:20.504Z,5.30
2019-03-15T14:02:50.178Z,5.40
2019-03-15T14:05:19.990Z,5.20
2019-03-15T14:07:49.793Z,4.20
2019-03-15T14:10:19.516Z,8.33
2019-03-15T14:12:49.195Z,4.80
2019-03-15T14:15:20.053Z,5.47
2019-03-15T14:17:49.735Z,5.17
2019-03-15T14:20:19.647Z,5.07
2019-03-15T14:22:49.496Z,5.30
2019-03-15T14:25:22.270Z,7.20
2019-03-15T14:27:51.939Z,6.17
2019-03-15T14:30:21.636Z,7.50
2019-03-15T14:32:51.327Z,4.20
2019-03-15T14:35:21.051Z,5.47
2019-03-15T14:37:50.847Z,5.03
2019-03-15T14:40:20.633Z,5.00
2019-03-15T14:42:50.419Z,6.77
2019-03-15T14:45:20.180Z,7.30
2019-03-15T14:47:49.938Z,6.83
2019-03-15T14:50:20.835Z,4.63
2019-03-15T14:52:50.644Z,5.07
2019-03-15T14:55:20.353Z,4.40
2019-03-15T14:57:53.287Z,4.73
2019-03-15T15:00:22.569Z,6.23
2019-03-15T15:02:53.004Z,4.13
2019-03-15T15:05:24.402Z,3.63
2019-03-15T15:07:56.204Z,7.70
2019-03-15T15:10:27.300Z,5.07
2019-03-15T15:12:57.020Z,5.73
2019-03-15T15:15:26.851Z,7.23
2019-03-15T15:17:56.608Z,7.17
2019-03-15T15:20:26.321Z,6.43
2019-03-15T15:22:56.074Z,7.30
2019-03-15T15:25:25.800Z,9.20
2019-03-15T15:28:04.440Z,5.47
2019-03-15T15:30:26.988Z,5.07
2019-03-15T15:32:56.761Z,5.57
2019-03-15T15:35:26.506Z,7.27
2019-03-15T15:37:56.297Z,5.03
2019-03-15T15:40:25.988Z,5.43
2019-03-15T15:42:55.752Z,6.47
2019-03-15T15:45:25.586Z,6.87
2019-03-15T15:47:55.569Z,5.97
2019-03-15T15:50:25.274Z,6.77
2019-03-15T15:52:54.965Z,6.03
2019-03-15T15:55:24.658Z,9.60
2019-03-15T15:57:54.446Z,6.13
2019-03-15T16:00:24.117Z,7.30
2019-03-15T16:02:53.755Z,4.30
2019-03-15T16:05:23.449Z,9.03
2019-03-15T16:07:56.386Z,5.33
2019-03-15T16:10:24.547Z,5.17
2019-03-15T16:12:54.191Z,4.27
2019-03-15T16:15:24.122Z,3.93
2019-03-15T16:17:53.898Z,5.53
2019-03-15T16:20:23.678Z,5.33
2019-03-15T16:22:53.431Z,5.30
2019-03-15T16:25:23.107Z,4.53
2019-03-15T16:27:52.927Z,5.27
2019-03-15T16:30:22.684Z,5.97
2019-03-15T16:32:52.523Z,4.90
2019-03-15T16:35:22.263Z,5.50
2019-03-15T16:37:52.043Z,6.53
2019-03-15T16:40:21.818Z,5.73
2019-03-15T16:42:51.519Z,5.23
2019-03-15T16:45:26.941Z,6.03
2019-03-15T16:47:56.723Z,6.73
2019-03-15T16:50:26.610Z,4.93
2019-03-15T16:52:56.367Z,5.93
2019-03-15T16:55:26.215Z,10.60
2019-03-15T16:57:55.883Z,9.97
2019-03-15T17:00:25.933Z,7.40
2019-03-15T17:02:55.656Z,7.27
2019-03-15T17:05:25.317Z,5.90
2019-03-15T17:07:54.953Z,6.90
2019-03-15T17:10:24.644Z,5.87
2019-03-15T17:12:55.782Z,5.97
2019-03-15T17:15:29.261Z,4.20
2019-03-15T17:17:59.131Z,4.07
2019-03-15T17:20:28.804Z,4.97
2019-03-15T17:22:58.510Z,7.10
2019-03-15T17:25:28.175Z,4.40
2019-03-15T17:27:57.852Z,3.67
2019-03-15T17:30:27.680Z,6.20
2019-03-15T17:32:57.477Z,5.73
2019-03-15T17:35:27.213Z,6.50
2019-03-15T17:37:56.973Z,5.80
2019-03-15T17:40:26.755Z,5.10
2019-03-15T17:42:56.455Z,5.53
2019-03-15T17:45:26.222Z,3.80
2019-03-15T17:47:55.952Z,5.50
2019-03-15T17:50:27.274Z,3.00
2019-03-15T17:52:57.112Z,4.43
2019-03-15T17:55:26.974Z,5.77
2019-03-15T17:57:56.815Z,3.83
2019-03-15T18:00:42.929Z,6.27
2019-03-15T18:03:20.620Z,5.53
2019-03-15T18:05:44.315Z,7.80
2019-03-15T18:08:14.206Z,6.10
2019-03-15T18:10:44.018Z,9.17
2019-03-15T18:13:13.826Z,5.57
2019-03-15T18:15:43.513Z,6.77
2019-03-15T18:18:13.313Z,8.30
2019-03-15T18:20:43.076Z,10.87
2019-03-15T18:23:12.844Z,5.43
2019-03-15T18:25:42.524Z,5.57
2019-03-15T18:28:12.266Z,8.07
2019-03-15T18:30:42.019Z,5.13
2019-03-15T18:33:11.889Z,7.63
2019-03-15T18:35:41.612Z,5.63
2019-03-15T18:38:11.312Z,7.77
2019-03-15T18:40:41.078Z,8.13
2019-03-15T18:43:10.788Z,5.13
2019-03-15T18:45:40.497Z,6.33
2019-03-15T18:48:10.326Z,11.53
2019-03-15T18:50:40.052Z,11.40
2019-03-15T18:53:09.788Z,7.47
2019-03-15T18:55:39.923Z,10.70
2019-03-15T18:58:10.017Z,10.50
2019-03-15T19:00:39.791Z,7.73
2019-03-15T19:03:10.154Z,6.20
2019-03-15T19:05:40.437Z,6.73
2019-03-15T19:08:10.231Z,6.60
2019-03-15T19:10:39.949Z,7.23
2019-03-15T19:13:09.658Z,9.77
2019-03-15T19:15:39.394Z,6.30
2019-03-15T19:18:09.087Z,7.37
2019-03-15T19:20:38.979Z,7.53
2019-03-15T19:23:08.706Z,7.77
2019-03-15T19:25:38.523Z,9.47
2019-03-15T19:28:08.227Z,7.40
2019-03-15T19:30:37.960Z,8.67
2019-03-15T19:33:07.629Z,10.70
2019-03-15T19:35:37.454Z,12.83
2019-03-15T19:38:07.213Z,6.60
2019-03-15T19:40:36.867Z,10.10
2019-03-15T19:43:06.551Z,6.93
2019-03-15T19:45:36.449Z,10.30
2019-03-15T19:48:06.268Z,13.90
2019-03-15T19:50:35.937Z,8.60
2019-03-15T19:53:05.745Z,8.90
2019-03-15T19:55:35.497Z,11.67
2019-03-15T19:58:05.250Z,10.90
2019-03-15T20:00:35.009Z,6.80
2019-03-15T20:03:05.104Z,8.03
2019-03-15T20:05:34.875Z,8.10
2019-03-15T20:08:04.721Z,11.93
2019-03-15T20:10:34.498Z,9.23
2019-03-15T20:13:04.259Z,9.43
2019-03-15T20:15:33.970Z,8.57
2019-03-15T20:18:03.865Z,11.00
2019-03-15T20:20:33.527Z,14.37
2019-03-15T20:23:03.343Z,10.67
2019-03-15T20:25:33.094Z,10.60
2019-03-15T20:28:04.180Z,6.53
2019-03-15T20:30:34.162Z,13.07
2019-03-15T20:33:03.961Z,9.13
2019-03-15T20:35:33.748Z,7.23
2019-03-15T20:38:03.465Z,11.97
2019-03-15T20:40:33.322Z,16.07
2019-03-15T20:43:03.013Z,9.10
2019-03-15T20:45:32.797Z,11.30
2019-03-15T20:48:02.546Z,9.93
2019-03-15T20:50:45.892Z,11.20
2019-03-15T20:53:09.735Z,6.40
2019-03-15T20:55:35.150Z,11.17
2019-03-15T20:58:04.952Z,8.17
2019-03-15T21:00:36.302Z,9.90
2019-03-15T21:03:06.222Z,12.47
2019-03-15T21:05:35.912Z,9.23
2019-03-15T21:08:05.625Z,7.20
2019-03-15T21:10:35.314Z,9.20
2019-03-15T21:13:05.142Z,8.77
2019-03-15T21:15:34.837Z,10.70
2019-03-15T21:18:04.621Z,11.83
2019-03-15T21:20:34.275Z,9.70
2019-03-15T21:23:04.124Z,8.67
2019-03-15T21:25:33.842Z,11.17
2019-03-15T21:28:05.327Z,12.00
2019-03-15T21:30:47.513Z,13.90
2019-03-15T21:33:07.132Z,8.77
2019-03-15T21:35:36.794Z,9.93
2019-03-15T21:38:06.488Z,10.00
2019-03-15T21:40:36.281Z,9.20
2019-03-15T21:43:06.037Z,8.30
2019-03-15T21:45:35.749Z,12.33
2019-03-15T21:48:05.538Z,11.00
2019-03-15T21:50:35.213Z,7.87
2019-03-15T21:53:04.956Z,15.73
2019-03-15T21:55:34.891Z,10.10
2019-03-15T21:58:04.603Z,11.80
2019-03-15T22:00:34.308Z,9.63
2019-03-15T22:03:04.136Z,9.63
2019-03-15T22:05:33.851Z,11.83
2019-03-15T22:08:03.512Z,10.60
2019-03-15T22:10:33.184Z,8.83
2019-03-15T22:13:02.944Z,10.37
2019-03-15T22:15:32.726Z,11.50
2019-03-15T22:18:02.530Z,9.50
2019-03-15T22:20:32.302Z,10.90
2019-03-15T22:23:02.072Z,10.33
2019-03-15T22:25:31.849Z,11.37
2019-03-15T22:28:01.523Z,8.83
2019-03-15T22:30:31.292Z,10.57
2019-03-15T22:33:00.986Z,10.17
2019-03-15T22:35:30.708Z,6.97
2019-03-15T22:38:00.421Z,8.47
2019-03-15T22:40:30.335Z,7.47
2019-03-15T22:43:00.179Z,10.27
2019-03-15T22:45:29.875Z,8.93
2019-03-15T22:47:59.688Z,8.50
2019-03-15T22:50:29.371Z,9.87
2019-03-15T22:52:59.159Z,7.27
2019-03-15T22:55:28.954Z,10.40
2019-03-15T22:58:00.181Z,10.73
2019-03-15T23:00:31.868Z,10.53
2019-03-15T23:03:01.747Z,10.53
2019-03-15T23:05:31.637Z,10.67
2019-03-15T23:08:01.436Z,10.07
2019-03-15T23:10:31.218Z,9.53
2019-03-15T23:13:01.098Z,6.10
2019-03-15T23:15:30.820Z,7.67
2019-03-15T23:18:00.534Z,7.63
2019-03-15T23:20:30.261Z,8.53
2019-03-15T23:23:00.008Z,10.23
2019-03-15T23:25:29.769Z,8.07
2019-03-15T23:27:59.628Z,12.00
2019-03-15T23:30:29.531Z,11.40
2019-03-15T23:32:59.353Z,9.37
2019-03-15T23:35:29.052Z,11.87
2019-03-15T23:37:58.839Z,7.57
2019-03-15T23:40:28.553Z,7.73
2019-03-15T23:42:58.270Z,9.07
2019-03-15T23:45:28.016Z,9.93
2019-03-15T23:47:57.737Z,6.33
2019-03-15T23:50:27.416Z,8.67
2019-03-15T23:52:57.192Z,7.00
2019-03-15T23:55:26.917Z,9.20
2019-03-15T23:57:56.668Z,9.63
